Main page
METAR-TAF:

METAR-TAF

Airports :

Belgrade, Serbia

Belgrade Nikola Tesla Airport

latitude: 44-49N, longitude: 020-17E, elevation: 96 m

Current weather observation

The report was made 30 minutes ago, at 11:30 UTC
Wind 9 kt from the Northwest
Temperature 8°C
Humidity 53%
Pressure 1024 hPa
Visibility 10 km or more
Scattered clouds at a height of 3000 ft

METAR: LYBE 251130Z 31009KT 9999 SCT030 08/M01 Q1024 NOSIG

Time: 13:00 (12:00 UTC)

Forecast

The report was made 1 hour and 0 minutes ago, at 11:00 UTC
Forecast valid from 25 at 12 UTC to 26 at 12 UTC
Wind 9 kt from the West/Northwest
Visibility 10 km or more
Scattered clouds at a height of 3000 ft

TAF: LYBE 251100Z 2512/2612 30009KT 9999 SCT030 TX11/2612Z TN03/2606Z

Weather observations and forecasts of more than 4000 airports (METAR and TAF reports).

The available stations are represented by yellow and red dots on the map.

Hover mouse over dot to see the name of the station.

Then click to see weather observations and forecasts.

To change the map : click on the green buttons with a black cross to zoom in, on the green button with a dash to zoom out, or on the green arrows for adjacent maps.


METAR-TAF: